Albany, WI

4:35 PM CDT on October 24, 2014 (GMT -0500)
Dane County Regional-Truax | Change Station
CLOSE
Current Station
Airport
Location: Madison,
Elevation: 866 ft
Nearby Weather Stations

Elev 866 ft 43.14 °N, 89.35 °W | Updated 42 minutes ago

Mostly Cloudy
Mostly Cloudy
61 °F
Feels Like 61 °F
N
9
Wind Variable Wind from South

Today
High -- | Low -- °F
--% Chance of Precip.
Yesterday
High -- | Low -- °F
Precip. -- in
7:21 AM 6:01 PM
New Moon, 1% visible
Pressure 29.94 in
Visibility 10.0 miles
Clouds Scattered Clouds 9000 ft
Scattered Clouds 12000 ft
Mostly Cloudy 25000 ft
Dew Point 51 °F
Humidity 70%
Rainfall 0.00 in
Snow Depth Not available.
UV 1 out of 12
Pollen 1.10 out of 12
Air Quality Not available.
Flu Activity Sporadic
METAR KMSN 242053Z 19008KT 10SM SCT090 SCT120 BKN250 16/11 A2993 RMK AO2 SLP136 T01610106 56027

More Conditions Fewer Conditions

Pressure 29.94 in
Visibility 10.0 miles
Clouds Scattered Clouds 9000 ft
Scattered Clouds 12000 ft
Mostly Cloudy 25000 ft
Dew Point 51 °F
Humidity 70%
Rainfall 0.00 in
Snow Depth Not available.
UV 1 out of 12
Pollen 1.10 out of 12
Air Quality Not available.
Flu Activity Sporadic
METAR KMSN 242053Z 19008KT 10SM SCT090 SCT120 BKN250 16/11 A2993 RMK AO2 SLP136 T01610106 56027

More Conditions Fewer Conditions

10-Day Weather Forecast

Almanac

Astronomy

Oct. 24, 2014 Rise Set
Actual Time 7:21 AM CDT 6:01 PM CDT
Civil Twilight 6:52 AM CDT 6:30 PM CDT
Nautical Twilight 6:19 AM CDT 7:03 PM CDT
Astronomical Twilight 5:47 AM CDT 7:35 PM CDT
Moon 8:01 AM CDT 6:40 PM CDT
Length of Visible Light 11h 37m
Length of Day
10h 39m
Tomorrow will be 2m 42s shorter.
New Moon, 1% of the Moon is Illuminated
Today
New Moon
Oct 30
First Quarter
Nov 6
Full
Nov 14
Last Quarter
Nov 22
New

Today's Extremes

State Highs State Lows

Community

WunderPhotos

Upload Photos

1,764,676 photos uploaded!

WunderBlogs® & News

By Dr. Jeff Masters
Director of Meteorology, Weather Underground
By Kari Strenfel
Meteorologist, Weather Underground
By Christopher C. Burt
Weather Historian, Weather Underground
October 24, 2014
October 24, 2014
October 24, 2014

Nearby

Snow Depth

Station Depth Elevation
No new snow has been reported.

Earthquake Activity

City Distance Mag. Time & Date
No recent earthquake activity has been reported nearby.
Minimum magnitude displayed is 2.5.

Coastal Water Temperatures

Place Temperature
No Stations Reporting

Nearby Weather Stations